Share

Cavern City, NM

KNMCARLS3 Elev 3150 ft | 32.43 °N, 104.25 °W | Change Station

Current weather conditions updated 3 minutes ago

Clear
Clear
57.7 °F
Feels Like 57.7 °F
N
6.0
Wind Variable Wind from WNW
Gusts 19.0 mph
Sunrise 6:25 AM
Sunset 7:28 PM
Moon Waning Gibbous

Today is forecast to be Much Cooler than yesterday.

Pressure 29.94 in
Visibility 10.0 miles
Clouds Clear
Dew Point 29 °F
Humidity 34%
Rainfall 0.00 in
Snow Depth Not available.
UV 0 out of 16
Pollen 9.40 out of 12
Air Quality Not available.
Flu Activity Local Activity
METAR KATS 170935Z AUTO 34013KT 10SM CLR 12/M03 A2994 RMK AO2

More Conditions Fewer Conditions

Pressure 29.94 in
Visibility 10.0 miles
Clouds Clear
Dew Point 29 °F
Humidity 34%
Rainfall 0.00 in
Snow Depth Not available.
UV 0 out of 16
Pollen 9.40 out of 12
Air Quality Not available.
Flu Activity Local Activity
METAR KATS 170935Z AUTO 34013KT 10SM CLR 12/M03 A2994 RMK AO2

More Conditions Fewer Conditions

10-Day Forecast

Almanac

Astronomy

Apr. 17, 2014 Rise Set
Actual Time 6:25 AM MDT 7:28 PM MDT
Civil Twilight 6:00 AM MDT 7:53 PM MDT
Nautical Twilight 5:30 AM MDT 8:23 PM MDT
Astronomical Twilight 4:59 AM MDT 8:54 PM MDT
Moon 10:09 PM MDT 8:05 AM MDT
Length of Visible Light 13h 53m
Length of Day
13h 02m
Tomorrow will be 1m 53s longer.
Waning Gibbous, 95% of the Moon is Illuminated
Today
Waning Gibbous
Apr 22
Last Quarter
Apr 29
New
May 6
First Quarter
May 14
Full

Today's Extremes

State Highs State Lows

Community

  • Sunset over the Bay
    Sunset over the Bay
  • symphony in blue....
    symphony in blue....
  • Dawn Surprise
    Dawn Surprise
  • Yucca delight
    Yucca delight
  • Sunset inside of the Ocean
    Sunset inside of the Ocean

WunderPhotos

Upload Photos

1,701,899 photos uploaded!

WunderBlogs® & News

Nearby

Snow Depth

Station Depth Elevation
McKnight Cabin 2 in 9240 ft
Lookout Mountain 0 in 8500 ft
Signal Peak 0 in 8360 ft
Wesner Springs 3 in 11120 ft
Santa Fe 29 in 11445 ft

Coastal Water Temperatures

Place Temperature
No Stations Reporting

Earthquake Activity

City Distance Mag. Time & Date
No recent earthquake activity has been reported nearby.
Minimum magnitude displayed is 2.5.

Nearby Weather Stations

Station Location Temp. Dew Point Humidity Wind Precip. Elev Updated Type
Carlsbad, NM 57.7 °F 29 °F 34% WNW  at  6.0 mph 0.00 in / hr 3150 ft 3:44 AM MDT Normal
Ridgecrest Subdivision, Carlsbad, NM 57.0 °F 29 °F 34% WNW  at  15.0 mph 0.00 in / hr 3150 ft 3:48 AM MDT Rapid Fire
SKP Ranch, Lakewood, NM 55.8 °F 27 °F 33% NNW  at  9.5 mph 0.00 in / hr 3327 ft 3:45 AM MDT Normal

Show More Stations Show Fewer Stations

What do you think?

We're not finished. Please let us know what you like, what you don't like, and what you are still missing.